Time;durP1;ratioP1;P1;durP2;ratioP2;P2;SDS_P1;SDS_P2;PMS_P1;PMS_P2;Temp;Humidity;BMP_temperature;BMP_pressure;BME280_temperature;BME280_humidity;BME280_pressure;Samples;Min_cycle;Max_cycle;Signal;HPM_P1;HPM_P2
2023/09/04 00:00:26;;;;;;;;;;;;;;;25.57;51.84;101472.45;106720;1270;25323;-50
2023/09/04 00:02:53;;;;;;;;;;;;;;;25.52;51.98;101465.21;106761;1260;25478;-50
2023/09/04 00:05:20;;;;;;;;;;;;;;;25.48;51.80;101467.09;106543;1270;25494;-50
2023/09/04 00:07:47;;;;;;;;;;;;;;;25.45;52.01;101466.77;106836;1260;25333;-50
2023/09/04 00:10:14;;;;;;;;;;;;;;;25.44;52.53;101463.66;106642;1268;25465;-52
2023/09/04 00:12:42;;;;;;;;;;;;;;;25.44;52.61;101456.89;106763;1261;25305;-57
2023/09/04 00:15:09;;;;;;;;;;;;;;;25.46;52.56;101457.30;106393;1262;22514;-51
2023/09/04 00:17:36;;;;;;;;;;;;;;;25.45;52.07;101455.97;106325;1261;25392;-52
2023/09/04 00:20:04;;;;;;;;;;;;;;;25.43;52.40;101456.93;106323;1270;24600;-51
2023/09/04 00:22:31;;;;;;;;;;;;;;;25.43;52.67;101453.98;106549;1256;22527;-50
2023/09/04 00:24:58;;;;;;;;;;;;;;;25.42;52.85;101451.19;106348;1275;23848;-51
2023/09/04 00:27:26;;;;;;;;;;;;;;;25.42;52.48;101447.84;106279;1273;25315;-50
2023/09/04 00:29:53;;;;;;;;;;;;;;;25.41;51.95;101448.41;106745;1259;25382;-53
2023/09/04 00:32:20;;;;;;;;;;;;;;;25.42;52.37;101445.52;106708;1270;25343;-51
2023/09/04 00:34:47;;;;;;;;;;;;;;;25.42;52.67;101448.87;106548;1259;385784;-50
2023/09/04 00:37:14;;;;;;;;;;;;;;;25.42;52.30;101450.32;106675;1263;24035;-51
2023/09/04 00:39:41;;;;;;;;;;;;;;;25.42;52.27;101448.55;106663;1262;24221;-51
2023/09/04 00:42:10;;;;;;;;;;;;;;;25.42;51.68;101449.60;106816;1270;25324;-50
2023/09/04 00:44:37;;;;;;;;;;;;;;;25.41;51.71;101452.65;106836;1267;24224;-51
2023/09/04 00:47:05;;;;;;;;;;;;;;;25.42;51.82;101453.52;106806;1256;25305;-50
2023/09/04 00:49:32;;;;;;;;;;;;;;;25.40;51.75;101452.90;106750;1256;24410;-50
2023/09/04 00:51:59;;;;;;;;;;;;;;;25.39;51.78;101454.91;106829;1259;25343;-50
2023/09/04 00:54:26;;;;;;;;;;;;;;;25.38;51.30;101452.66;106883;1260;25354;-51
2023/09/04 00:56:53;;;;;;;;;;;;;;;25.38;51.32;101453.95;106892;1263;22514;-51
2023/09/04 00:59:20;;;;;;;;;;;;;;;25.37;51.07;101452.29;106794;1261;23892;-51
2023/09/04 01:01:46;;;;;;;;;;;;;;;25.36;51.14;101451.06;106753;1265;22510;-50
2023/09/04 01:04:13;;;;;;;;;;;;;;;25.36;51.54;101453.73;106730;1260;25315;-51
2023/09/04 01:06:40;;;;;;;;;;;;;;;25.37;51.59;101453.52;106660;1270;25318;-50
2023/09/04 01:09:08;;;;;;;;;;;;;;;25.36;51.26;101453.05;106698;1270;24039;-50
2023/09/04 01:11:36;;;;;;;;;;;;;;;25.36;51.49;101459.44;106772;1273;25405;-51
2023/09/04 01:14:04;;;;;;;;;;;;;;;25.35;51.34;101462.13;106612;1259;25331;-51
2023/09/04 01:16:31;;;;;;;;;;;;;;;25.35;51.56;101463.38;106731;1266;24330;-50
2023/09/04 01:18:58;;;;;;;;;;;;;;;25.35;51.88;101465.70;106606;1270;24204;-51
2023/09/04 01:21:25;;;;;;;;;;;;;;;25.35;52.01;101461.59;106615;1267;25315;-51
2023/09/04 01:23:52;;;;;;;;;;;;;;;25.35;51.58;101459.98;106667;1261;24196;-50
2023/09/04 01:26:25;;;;;;;;;;;;;;;25.34;51.84;101458.13;106702;1262;25487;-51
2023/09/04 01:29:08;;;;;;;;;;;;;;;25.34;51.83;101459.04;106354;1263;25332;-51
2023/09/04 01:31:46;;;;;;;;;;;;;;;25.32;51.92;101458.61;106455;1260;25335;-49
2023/09/04 01:34:14;;;;;;;;;;;;;;;25.31;52.19;101454.10;106721;1262;25413;-50
2023/09/04 01:36:41;;;;;;;;;;;;;;;25.29;52.20;101452.27;106514;1262;25316;-50
2023/09/04 01:39:09;;;;;;;;;;;;;;;25.28;52.25;101451.66;106763;1262;25369;-50
2023/09/04 01:41:39;;;;;;;;;;;;;;;25.29;52.66;101452.45;106699;1263;25331;-49
2023/09/04 01:44:06;;;;;;;;;;;;;;;25.31;52.61;101453.59;106790;1258;25314;-50
2023/09/04 01:46:34;;;;;;;;;;;;;;;25.31;52.69;101455.16;106738;1273;25325;-49
2023/09/04 01:49:01;;;;;;;;;;;;;;;25.31;52.47;101449.81;106769;1256;25343;-50
2023/09/04 01:51:28;;;;;;;;;;;;;;;25.32;52.44;101451.70;106745;1266;25308;-50
2023/09/04 01:53:55;;;;;;;;;;;;;;;25.32;52.54;101451.52;106730;1267;24207;-51
2023/09/04 01:56:22;;;;;;;;;;;;;;;25.33;52.66;101447.17;106733;1262;22514;-50
2023/09/04 01:58:49;;;;;;;;;;;;;;;25.34;52.87;101441.77;106864;1257;25396;-50
2023/09/04 02:01:16;;;;;;;;;;;;;;;25.36;52.61;101434.39;106808;1262;22634;-50
2023/09/04 02:03:44;;;;;;;;;;;;;;;25.36;52.88;101432.56;106864;1256;25465;-49
2023/09/04 02:06:11;;;;;;;;;;;;;;;25.37;52.84;101430.40;106763;1266;25316;-49
2023/09/04 02:08:39;;;;;;;;;;;;;;;25.36;52.84;101431.52;106907;1256;25392;-50
2023/09/04 02:11:06;;;;;;;;;;;;;;;25.36;52.85;101430.96;106702;1257;25364;-50
2023/09/04 02:13:33;;;;;;;;;;;;;;;25.35;52.67;101431.02;106795;1270;25315;-50
2023/09/04 02:16:00;;;;;;;;;;;;;;;25.34;52.48;101431.11;106681;1259;24168;-52
2023/09/04 02:18:27;;;;;;;;;;;;;;;25.32;52.88;101431.81;106724;1270;25482;-52
2023/09/04 02:20:54;;;;;;;;;;;;;;;25.32;52.87;101430.09;106811;1256;25383;-53
2023/09/04 02:23:21;;;;;;;;;;;;;;;25.32;53.03;101430.38;106700;1259;25211;-49
2023/09/04 02:25:48;;;;;;;;;;;;;;;25.32;53.13;101426.81;106858;1259;25325;-52
2023/09/04 02:28:15;;;;;;;;;;;;;;;25.31;53.06;101422.63;106783;1256;25316;-50
2023/09/04 02:30:42;;;;;;;;;;;;;;;25.29;52.87;101424.05;106789;1265;25313;-49
2023/09/04 02:33:09;;;;;;;;;;;;;;;25.25;53.01;101418.14;106786;1268;25396;-52
2023/09/04 02:35:36;;;;;;;;;;;;;;;25.23;53.16;101421.10;106867;1266;25411;-52
2023/09/04 02:38:03;;;;;;;;;;;;;;;25.22;53.25;101415.17;106851;1259;25374;-52
2023/09/04 02:40:30;;;;;;;;;;;;;;;25.20;53.40;101415.84;106843;1256;25315;-50
2023/09/04 02:42:57;;;;;;;;;;;;;;;25.17;53.48;101406.50;106756;1263;25343;-49
2023/09/04 02:45:24;;;;;;;;;;;;;;;25.16;53.70;101405.33;106836;1260;25456;-55
2023/09/04 02:47:54;;;;;;;;;;;;;;;25.16;53.88;101401.60;106702;1259;25335;-49
2023/09/04 02:50:21;;;;;;;;;;;;;;;25.16;54.07;101404.63;106784;1270;25316;-50
2023/09/04 02:52:48;;;;;;;;;;;;;;;25.15;54.13;101402.52;106798;1260;25456;-49
2023/09/04 02:55:16;;;;;;;;;;;;;;;25.16;54.37;101399.98;106984;1261;25344;-50
2023/09/04 02:57:43;;;;;;;;;;;;;;;25.16;54.35;101399.06;106879;1256;24173;-49
2023/09/04 03:00:12;;;;;;;;;;;;;;;25.17;54.34;101402.89;106831;1267;24377;-49
2023/09/04 03:02:40;;;;;;;;;;;;;;;25.18;54.50;101405.83;106821;1259;23398;-50
2023/09/04 03:05:08;;;;;;;;;;;;;;;25.20;54.47;101405.56;106823;1256;25466;-52
2023/09/04 03:07:35;;;;;;;;;;;;;;;25.21;54.62;101403.48;106740;1262;22524;-53
2023/09/04 03:10:02;;;;;;;;;;;;;;;25.22;54.83;101404.48;106817;1256;22510;-50
2023/09/04 03:12:30;;;;;;;;;;;;;;;25.24;54.62;101402.40;106772;1259;25343;-50
2023/09/04 03:14:57;;;;;;;;;;;;;;;25.25;54.69;101405.52;106754;1256;22858;-50
2023/09/04 03:17:24;;;;;;;;;;;;;;;25.27;54.79;101406.23;106605;1260;22508;-52
2023/09/04 03:19:53;;;;;;;;;;;;;;;25.28;54.41;101411.68;106558;1263;25393;-51
2023/09/04 03:22:21;;;;;;;;;;;;;;;25.27;54.36;101410.52;106680;1257;25350;-52
2023/09/04 03:24:48;;;;;;;;;;;;;;;25.28;54.35;101414.88;106657;1275;25453;-51
2023/09/04 03:27:15;;;;;;;;;;;;;;;25.28;54.48;101410.30;106846;1270;25305;-52
2023/09/04 03:29:42;;;;;;;;;;;;;;;25.29;54.55;101412.17;106818;1259;25418;-51
2023/09/04 03:32:09;;;;;;;;;;;;;;;25.29;54.69;101413.77;106746;1256;25378;-51
2023/09/04 03:34:36;;;;;;;;;;;;;;;25.29;54.82;101414.30;106859;1268;25344;-51
2023/09/04 03:37:04;;;;;;;;;;;;;;;25.30;54.99;101413.52;106798;1270;25315;-51
2023/09/04 03:39:34;;;;;;;;;;;;;;;25.32;54.99;101411.21;106726;1270;25316;-52
2023/09/04 03:42:01;;;;;;;;;;;;;;;25.33;54.91;101410.06;106680;1256;25344;-50
2023/09/04 03:44:29;;;;;;;;;;;;;;;25.35;54.99;101407.30;106796;1256;25316;-51
2023/09/04 03:46:55;;;;;;;;;;;;;;;25.35;54.84;101407.25;106864;1260;24169;-51
2023/09/04 03:49:22;;;;;;;;;;;;;;;25.37;54.95;101402.85;106686;1260;23853;-51
2023/09/04 03:51:49;;;;;;;;;;;;;;;25.40;54.88;101404.56;106672;1259;25337;-51
2023/09/04 03:54:16;;;;;;;;;;;;;;;25.43;54.94;101402.09;106420;1259;23856;-51
2023/09/04 03:56:43;;;;;;;;;;;;;;;25.45;54.92;101401.08;106732;1259;24650;-53
2023/09/04 03:59:10;;;;;;;;;;;;;;;25.48;54.81;101404.89;106740;1259;24192;-51
2023/09/04 04:01:37;;;;;;;;;;;;;;;25.50;54.92;101400.84;106666;1273;22502;-52
2023/09/04 04:04:05;;;;;;;;;;;;;;;25.52;54.92;101403.73;106806;1255;25344;-51
2023/09/04 04:06:32;;;;;;;;;;;;;;;25.54;54.84;101406.97;106769;1260;23862;-51
2023/09/04 04:08:59;;;;;;;;;;;;;;;25.56;54.59;101409.14;106912;1260;25366;-51
2023/09/04 04:11:27;;;;;;;;;;;;;;;25.57;54.49;101412.06;106819;1256;25410;-52
2023/09/04 04:13:54;;;;;;;;;;;;;;;25.59;54.60;101415.63;106737;1262;25437;-51
2023/09/04 04:16:21;;;;;;;;;;;;;;;25.62;54.86;101418.58;106733;1259;25382;-52
2023/09/04 04:18:47;;;;;;;;;;;;;;;25.66;54.68;101420.39;106791;1266;22627;-52
2023/09/04 04:21:14;;;;;;;;;;;;;;;25.70;54.64;101419.23;106895;1260;24179;-52
2023/09/04 04:23:41;;;;;;;;;;;;;;;25.73;54.53;101418.51;106646;1266;22614;-56
2023/09/04 04:26:11;;;;;;;;;;;;;;;25.77;54.35;101418.75;106740;1259;24926;-51
2023/09/04 04:28:38;;;;;;;;;;;;;;;25.81;54.26;101420.52;106750;1256;24227;-51
2023/09/04 04:31:06;;;;;;;;;;;;;;;25.85;54.30;101422.70;106802;1261;25376;-52
2023/09/04 04:33:33;;;;;;;;;;;;;;;25.90;54.21;101426.70;106725;1259;25316;-51
2023/09/04 04:36:03;;;;;;;;;;;;;;;25.94;53.94;101427.61;106734;1264;25331;-51
2023/09/04 04:38:31;;;;;;;;;;;;;;;25.98;53.88;101428.38;106888;1260;25379;-50
2023/09/04 04:40:57;;;;;;;;;;;;;;;26.01;53.84;101428.48;106886;1256;25354;-51
2023/09/04 04:43:25;;;;;;;;;;;;;;;26.04;53.69;101430.95;106809;1260;25344;-52
2023/09/04 04:45:53;;;;;;;;;;;;;;;26.05;53.47;101431.88;106795;1259;22504;-51
2023/09/04 04:48:20;;;;;;;;;;;;;;;26.04;53.23;101432.16;106756;1268;23551;-52
2023/09/04 04:50:49;;;;;;;;;;;;;;;26.10;53.26;101434.75;106532;1278;25213;-51
2023/09/04 04:53:16;;;;;;;;;;;;;;;26.11;53.05;101439.14;106878;1256;25343;-50
2023/09/04 04:55:43;;;;;;;;;;;;;;;26.11;53.29;101437.68;106721;1269;25321;-51
2023/09/04 04:58:11;;;;;;;;;;;;;;;26.11;53.43;101440.91;106614;1270;25381;-52
2023/09/04 05:00:37;;;;;;;;;;;;;;;26.12;53.49;101438.71;106724;1268;25315;-51
2023/09/04 05:03:05;;;;;;;;;;;;;;;26.14;53.52;101439.99;106850;1259;25455;-51
2023/09/04 05:05:32;;;;;;;;;;;;;;;26.15;53.37;101438.81;106824;1258;25272;-51
2023/09/04 05:07:59;;;;;;;;;;;;;;;26.17;53.29;101442.60;106711;1267;25399;-51
2023/09/04 05:10:26;;;;;;;;;;;;;;;26.19;53.11;101442.95;106702;1266;25316;-51
2023/09/04 05:12:54;;;;;;;;;;;;;;;26.22;52.88;101444.34;106671;1262;25310;-51
2023/09/04 05:15:21;;;;;;;;;;;;;;;26.25;53.07;101440.69;106718;1267;23897;-51
2023/09/04 05:17:48;;;;;;;;;;;;;;;26.29;53.24;101439.83;106755;1259;22510;-51
2023/09/04 05:20:15;;;;;;;;;;;;;;;26.34;53.42;101446.92;106584;1274;25503;-51
2023/09/04 05:22:42;;;;;;;;;;;;;;;26.39;53.07;101445.27;106773;1264;25322;-51
2023/09/04 05:25:11;;;;;;;;;;;;;;;26.44;53.01;101446.48;106896;1259;25405;-51
2023/09/04 05:27:38;;;;;;;;;;;;;;;26.50;53.24;101446.04;106828;1259;25405;-51
2023/09/04 05:30:05;;;;;;;;;;;;;;;26.55;53.12;101446.54;106844;1269;25379;-52
2023/09/04 05:32:32;;;;;;;;;;;;;;;26.60;53.15;101450.79;106856;1267;22517;-51
2023/09/04 05:35:00;;;;;;;;;;;;;;;26.65;53.11;101449.88;106800;1261;22750;-54
2023/09/04 05:37:27;;;;;;;;;;;;;;;26.70;53.29;101450.35;106603;1262;25324;-52
2023/09/04 05:39:54;;;;;;;;;;;;;;;26.76;52.70;101454.73;106848;1259;25466;-51
2023/09/04 05:42:21;;;;;;;;;;;;;;;26.81;52.23;101454.83;106783;1260;25347;-54
2023/09/04 05:44:48;;;;;;;;;;;;;;;26.87;51.68;101455.45;106715;1262;25330;-50
2023/09/04 05:47:15;;;;;;;;;;;;;;;26.94;50.81;101456.84;106711;1270;25465;-51
2023/09/04 05:49:41;;;;;;;;;;;;;;;27.01;50.27;101459.10;106846;1269;25351;-50
2023/09/04 05:52:08;;;;;;;;;;;;;;;27.09;49.62;101455.27;106796;1266;25466;-51
2023/09/04 05:54:35;;;;;;;;;;;;;;;27.16;49.21;101458.81;106870;1256;25334;-51
2023/09/04 05:57:02;;;;;;;;;;;;;;;27.24;49.10;101459.92;106822;1261;24224;-50
2023/09/04 05:59:30;;;;;;;;;;;;;;;27.32;48.89;101464.10;106726;1270;22638;-50
2023/09/04 06:01:57;;;;;;;;;;;;;;;27.39;48.44;101464.44;106704;1261;25344;-50
2023/09/04 06:04:24;;;;;;;;;;;;;;;27.46;48.10;101462.83;106638;1270;24401;-50
2023/09/04 06:06:52;;;;;;;;;;;;;;;27.53;47.75;101465.97;107000;1262;25363;-50
2023/09/04 06:09:19;;;;;;;;;;;;;;;27.60;47.08;101465.56;106783;1269;25383;-50
2023/09/04 06:11:46;;;;;;;;;;;;;;;27.71;47.33;101468.41;106828;1267;22732;-51
2023/09/04 06:14:13;;;;;;;;;;;;;;;27.83;47.63;101468.30;106774;1269;25395;-50
2023/09/04 06:16:40;;;;;;;;;;;;;;;27.94;47.78;101469.17;106720;1259;25316;-50
2023/09/04 06:19:07;;;;;;;;;;;;;;;28.07;47.91;101468.97;106833;1259;25312;-50
2023/09/04 06:21:33;;;;;;;;;;;;;;;28.23;47.49;101473.52;106786;1260;25351;-50
2023/09/04 06:24:00;;;;;;;;;;;;;;;28.36;47.03;101473.64;106785;1256;25325;-50
2023/09/04 06:26:27;;;;;;;;;;;;;;;28.48;46.59;101472.27;106519;1262;25315;-51
2023/09/04 06:28:54;;;;;;;;;;;;;;;28.59;46.54;101472.35;106693;1270;22504;-50
2023/09/04 06:31:21;;;;;;;;;;;;;;;28.69;45.85;101476.65;106810;1262;22607;-50
2023/09/04 06:33:48;;;;;;;;;;;;;;;28.77;45.13;101475.81;106773;1262;25401;-51
2023/09/04 06:36:15;;;;;;;;;;;;;;;28.81;44.51;101472.20;106742;1259;25306;-49
2023/09/04 06:38:42;;;;;;;;;;;;;;;28.81;44.45;101469.04;106744;1260;25458;-49
2023/09/04 06:41:09;;;;;;;;;;;;;;;28.80;44.56;101470.58;106836;1267;25315;-49
2023/09/04 06:43:37;;;;;;;;;;;;;;;28.80;44.73;101469.48;106733;1274;24198;-50
2023/09/04 06:46:04;;;;;;;;;;;;;;;28.80;44.46;101472.48;106841;1269;25489;-50
2023/09/04 06:48:31;;;;;;;;;;;;;;;28.80;44.67;101479.67;107014;1259;25375;-51
2023/09/04 06:50:59;;;;;;;;;;;;;;;28.76;45.19;101479.61;106713;1267;25344;-49
2023/09/04 06:53:28;;;;;;;;;;;;;;;28.72;45.33;101478.21;106800;1266;22535;-50
2023/09/04 06:55:54;;;;;;;;;;;;;;;28.67;45.41;101476.88;106772;1269;25319;-49
2023/09/04 06:58:22;;;;;;;;;;;;;;;28.63;45.79;101483.26;106814;1264;25364;-50
2023/09/04 07:00:51;;;;;;;;;;;;;;;28.61;45.55;101478.67;106808;1261;23883;-50
2023/09/04 07:03:20;;;;;;;;;;;;;;;28.59;45.31;101478.13;106879;1259;25318;-50
2023/09/04 07:05:47;;;;;;;;;;;;;;;28.57;45.00;101481.16;106745;1269;25372;-49
2023/09/04 07:08:14;;;;;;;;;;;;;;;28.56;45.07;101483.50;106807;1256;22618;-50
2023/09/04 07:10:42;;;;;;;;;;;;;;;28.62;45.30;101482.97;106641;1270;25393;-50
2023/09/04 07:13:09;;;;;;;;;;;;;;;28.74;45.06;101487.15;106764;1259;25337;-49
2023/09/04 07:15:36;;;;;;;;;;;;;;;28.88;44.58;101491.23;106682;1261;25387;-50
2023/09/04 07:18:03;;;;;;;;;;;;;;;29.03;44.44;101492.10;106596;1262;24190;-50
2023/09/04 07:20:31;;;;;;;;;;;;;;;29.21;44.26;101491.63;106812;1262;22749;-50
2023/09/04 07:22:58;;;;;;;;;;;;;;;29.43;44.04;101496.91;106718;1268;24197;-53
2023/09/04 07:25:45;;;;;;;;;;;;;;;29.69;43.54;101496.70;106617;1259;25340;-51
2023/09/04 07:28:12;;;;;;;;;;;;;;;29.91;42.95;101499.08;106769;1263;24202;-52
2023/09/04 07:30:39;;;;;;;;;;;;;;;30.01;42.38;101496.54;106673;1260;25465;-52
2023/09/04 07:33:06;;;;;;;;;;;;;;;30.03;42.25;101494.66;106827;1259;23883;-50
2023/09/04 07:35:33;;;;;;;;;;;;;;;30.00;41.99;101499.14;106737;1259;25344;-50
2023/09/04 07:38:00;;;;;;;;;;;;;;;29.93;42.10;101500.80;106851;1259;25334;-51
2023/09/04 07:40:27;;;;;;;;;;;;;;;29.88;42.20;101499.17;106890;1262;25344;-51
2023/09/04 07:42:54;;;;;;;;;;;;;;;29.82;42.25;101495.95;106769;1259;25383;-52
2023/09/04 07:45:24;;;;;;;;;;;;;;;29.76;42.19;101495.09;106793;1268;25322;-51
2023/09/04 07:47:51;;;;;;;;;;;;;;;29.72;42.25;101494.35;106779;1259;22519;-50
2023/09/04 07:50:18;;;;;;;;;;;;;;;29.70;42.50;101498.58;106766;1272;25393;-50
2023/09/04 07:52:45;;;;;;;;;;;;;;;29.67;42.06;101497.42;106735;1275;25433;-50
2023/09/04 07:55:12;;;;;;;;;;;;;;;29.62;41.83;101499.55;106898;1256;23946;-51
2023/09/04 07:57:39;;;;;;;;;;;;;;;29.53;42.01;101499.79;106816;1259;25501;-51
2023/09/04 08:00:06;;;;;;;;;;;;;;;29.46;42.37;101501.90;106838;1259;23269;-50
2023/09/04 08:02:39;;;;;;;;;;;;;;;29.41;42.64;101501.60;106606;1263;25454;-51
2023/09/04 08:05:07;;;;;;;;;;;;;;;29.40;42.67;101499.92;106856;1262;23848;-50
2023/09/04 08:07:34;;;;;;;;;;;;;;;29.41;42.73;101499.96;106828;1267;25316;-51
2023/09/04 08:10:01;;;;;;;;;;;;;;;29.44;42.64;101497.41;106785;1270;25498;-53
2023/09/04 08:12:28;;;;;;;;;;;;;;;29.46;42.54;101499.91;106769;1268;22532;-50
2023/09/04 08:14:55;;;;;;;;;;;;;;;29.48;42.34;101498.69;106813;1269;24182;-50
2023/09/04 08:17:23;;;;;;;;;;;;;;;29.48;42.16;101501.66;106778;1266;25407;-51
2023/09/04 08:19:50;;;;;;;;;;;;;;;29.47;42.13;101503.18;106829;1269;25331;-53
2023/09/04 08:22:17;;;;;;;;;;;;;;;29.43;42.00;101504.61;106846;1263;23245;-49
2023/09/04 08:24:48;;;;;;;;;;;;;;;29.39;42.16;101506.25;106863;1259;25316;-52
2023/09/04 08:27:15;;;;;;;;;;;;;;;29.35;42.04;101508.72;106731;1275;25337;-50
2023/09/04 08:29:42;;;;;;;;;;;;;;;29.35;42.05;101507.90;106680;1269;25361;-51
2023/09/04 08:32:08;;;;;;;;;;;;;;;29.34;41.62;101507.61;106827;1267;25256;-51
2023/09/04 08:34:35;;;;;;;;;;;;;;;29.33;41.74;101511.98;106789;1259;24192;-50
2023/09/04 08:37:03;;;;;;;;;;;;;;;29.35;41.43;101510.36;106759;1269;25316;-51
2023/09/04 08:39:30;;;;;;;;;;;;;;;29.40;41.36;101513.54;106874;1273;25396;-51
2023/09/04 08:41:57;;;;;;;;;;;;;;;29.42;41.32;101511.52;106570;1272;25316;-51
2023/09/04 08:44:24;;;;;;;;;;;;;;;29.44;41.34;101511.53;106766;1262;25316;-50
2023/09/04 08:46:51;;;;;;;;;;;;;;;29.49;41.24;101512.50;106777;1259;25466;-50
2023/09/04 08:49:19;;;;;;;;;;;;;;;29.56;41.31;101507.41;106846;1272;23825;-51
2023/09/04 08:51:46;;;;;;;;;;;;;;;29.62;40.97;101509.40;106796;1262;25464;-50
2023/09/04 08:54:12;;;;;;;;;;;;;;;29.65;40.64;101512.86;106814;1270;25380;-51
2023/09/04 08:56:39;;;;;;;;;;;;;;;29.67;40.36;101507.80;106760;1268;25392;-52
2023/09/04 08:59:06;;;;;;;;;;;;;;;29.70;40.05;101511.70;106646;1269;25319;-50
2023/09/04 09:01:33;;;;;;;;;;;;;;;29.69;39.38;101510.71;106813;1273;25319;-50
2023/09/04 09:04:02;;;;;;;;;;;;;;;29.65;39.39;101511.79;106806;1269;25392;-51
2023/09/04 09:06:29;;;;;;;;;;;;;;;29.63;39.46;101515.14;106817;1272;22510;-50
2023/09/04 09:08:56;;;;;;;;;;;;;;;29.64;39.92;101512.02;106775;1262;25328;-50
2023/09/04 09:11:23;;;;;;;;;;;;;;;29.69;39.64;101511.39;106698;1270;25334;-50
2023/09/04 09:13:50;;;;;;;;;;;;;;;29.74;38.66;101513.16;106767;1270;25472;-49
2023/09/04 09:16:18;;;;;;;;;;;;;;;29.76;38.83;101514.77;106861;1260;25324;-51
2023/09/04 09:18:46;;;;;;;;;;;;;;;29.76;38.53;101517.20;106753;1269;22530;-51
2023/09/04 09:21:23;;;;;;;;;;;;;;;29.77;38.39;101516.38;106772;1262;25334;-51
2023/09/04 09:24:06;;;;;;;;;;;;;;;29.81;37.74;101513.34;106817;1256;25466;-49
2023/09/04 09:26:33;;;;;;;;;;;;;;;29.87;37.62;101511.56;106712;1269;25313;-51
2023/09/04 09:29:03;;;;;;;;;;;;;;;29.94;37.54;101512.02;106835;1268;24019;-51
2023/09/04 09:31:30;;;;;;;;;;;;;;;29.99;36.89;101512.23;106791;1268;25305;-51
2023/09/04 09:33:58;;;;;;;;;;;;;;;30.03;36.48;101514.19;106759;1275;25344;-50
2023/09/04 09:36:25;;;;;;;;;;;;;;;30.07;36.26;101512.24;106789;1272;25403;-50
2023/09/04 09:38:52;;;;;;;;;;;;;;;30.14;35.92;101512.84;106792;1272;25316;-50
2023/09/04 09:41:19;;;;;;;;;;;;;;;30.20;35.35;101512.02;106728;1263;24064;-51
2023/09/04 09:43:46;;;;;;;;;;;;;;;30.24;35.05;101515.44;106734;1265;22497;-51
2023/09/04 09:46:17;;;;;;;;;;;;;;;30.28;35.04;101520.48;106498;1262;24230;-54
2023/09/04 09:48:44;;;;;;;;;;;;;;;30.30;34.90;101517.25;106596;1275;25454;-51
2023/09/04 09:51:11;;;;;;;;;;;;;;;30.35;35.39;101522.16;106587;1263;25374;-50
2023/09/04 09:53:48;;;;;;;;;;;;;;;30.40;35.10;101520.62;106653;1262;25498;-50
2023/09/04 09:56:16;;;;;;;;;;;;;;;30.44;34.21;101520.21;106587;1262;25262;-52
2023/09/04 09:58:46;;;;;;;;;;;;;;;30.46;33.91;101518.77;106454;1277;22521;-50
2023/09/04 10:01:14;;;;;;;;;;;;;;;30.48;33.72;101519.48;106352;1265;23861;-49
2023/09/04 10:03:41;;;;;;;;;;;;;;;30.50;33.76;101519.83;106436;1276;25347;-49
2023/09/04 10:06:10;;;;;;;;;;;;;;;30.55;33.73;101519.75;106464;1275;25402;-49
2023/09/04 10:08:38;;;;;;;;;;;;;;;30.63;33.23;101521.55;106507;1265;25393;-50
2023/09/04 10:11:06;;;;;;;;;;;;;;;30.70;32.96;101519.22;106549;1276;24427;-50
2023/09/04 10:13:35;;;;;;;;;;;;;;;30.78;33.09;101521.36;106641;1262;25319;-49
2023/09/04 10:16:03;;;;;;;;;;;;;;;30.83;32.77;101524.06;106539;1271;23329;-51
2023/09/04 10:18:30;;;;;;;;;;;;;;;30.88;32.25;101522.52;106433;1261;24495;-50
2023/09/04 10:20:57;;;;;;;;;;;;;;;30.93;32.69;101518.90;106597;1276;25506;-51
2023/09/04 10:23:24;;;;;;;;;;;;;;;30.98;32.49;101518.56;106754;1262;25319;-50
2023/09/04 10:25:53;;;;;;;;;;;;;;;31.03;32.22;101516.83;106820;1266;25303;-49
2023/09/04 10:28:39;;;;;;;;;;;;;;;31.08;32.43;101519.32;106773;1259;25324;-50
2023/09/04 10:31:12;;;;;;;;;;;;;;;31.12;32.66;101519.52;106729;1262;25322;-50
2023/09/04 10:33:39;;;;;;;;;;;;;;;31.13;32.08;101517.05;106639;1259;24296;-50
2023/09/04 10:36:06;;;;;;;;;;;;;;;31.17;31.64;101518.48;106710;1273;25321;-50
2023/09/04 10:38:33;;;;;;;;;;;;;;;31.20;31.80;101516.73;106410;1278;25357;-51
2023/09/04 10:41:00;;;;;;;;;;;;;;;31.24;31.82;101513.13;106824;1273;25380;-51
2023/09/04 10:43:38;;;;;;;;;;;;;;;31.29;31.46;101508.14;106759;1263;25392;-52
2023/09/04 10:46:06;;;;;;;;;;;;;;;31.34;31.44;101506.09;106805;1257;22722;-51
2023/09/04 10:48:46;;;;;;;;;;;;;;;31.37;31.21;101508.08;106850;1270;24192;-52
2023/09/04 10:51:33;;;;;;;;;;;;;;;31.40;31.14;101509.27;106410;1278;25481;-49
2023/09/04 10:54:01;;;;;;;;;;;;;;;31.43;31.45;101512.16;106625;1260;25393;-50
2023/09/04 10:56:28;;;;;;;;;;;;;;;31.45;31.99;101511.05;106660;1276;22507;-55
2023/09/04 10:59:04;;;;;;;;;;;;;;;31.49;31.95;101512.97;106722;1274;25479;-50
2023/09/04 11:01:33;;;;;;;;;;;;;;;31.54;32.06;101513.27;106383;1275;25305;-49
2023/09/04 11:04:02;;;;;;;;;;;;;;;31.56;31.30;101510.14;106865;1272;22651;-51
2023/09/04 11:06:32;;;;;;;;;;;;;;;31.58;31.49;101517.15;106804;1259;24209;-50
2023/09/04 11:08:59;;;;;;;;;;;;;;;31.60;31.32;101508.73;106896;1256;25309;-50
2023/09/04 11:11:26;;;;;;;;;;;;;;;31.61;31.19;101507.48;106682;1269;25411;-49
2023/09/04 11:14:00;;;;;;;;;;;;;;;31.63;31.10;101508.94;106797;1272;25324;-50
2023/09/04 11:16:32;;;;;;;;;;;;;;;31.64;31.61;101509.02;106565;1273;25343;-50
2023/09/04 11:19:03;;;;;;;;;;;;;;;31.67;31.57;101506.59;106802;1259;22507;-50
2023/09/04 11:21:31;;;;;;;;;;;;;;;31.70;31.05;101507.54;106846;1270;25442;-51
2023/09/04 11:23:58;;;;;;;;;;;;;;;31.73;31.29;101504.67;106824;1273;25766;-50
2023/09/04 11:26:25;;;;;;;;;;;;;;;31.76;31.33;101504.58;106913;1271;25396;-51
2023/09/04 11:28:52;;;;;;;;;;;;;;;31.79;31.24;101504.30;106791;1259;25344;-51
2023/09/04 11:31:19;;;;;;;;;;;;;;;31.80;31.40;101502.40;106690;1276;24182;-49
2023/09/04 11:33:49;;;;;;;;;;;;;;;31.82;31.43;101506.87;106828;1266;22628;-55
2023/09/04 11:36:16;;;;;;;;;;;;;;;31.83;31.23;101503.34;106733;1260;24218;-50
2023/09/04 11:38:43;;;;;;;;;;;;;;;31.84;31.12;101505.02;106787;1262;25393;-49
2023/09/04 11:41:16;;;;;;;;;;;;;;;31.84;31.77;101504.27;106786;1259;25393;-51
2023/09/04 11:43:43;;;;;;;;;;;;;;;31.86;31.64;101499.40;106901;1271;25377;-51
2023/09/04 11:46:11;;;;;;;;;;;;;;;31.89;31.77;101492.88;106827;1273;22514;-50
2023/09/04 11:48:38;;;;;;;;;;;;;;;31.91;31.47;101494.61;106801;1271;25313;-50
2023/09/04 11:51:07;;;;;;;;;;;;;;;31.94;31.38;101496.13;106722;1273;25363;-50
2023/09/04 11:53:34;;;;;;;;;;;;;;;31.98;31.59;101492.91;106785;1257;25398;-51
2023/09/04 11:56:03;;;;;;;;;;;;;;;31.99;31.91;101496.91;106778;1269;25309;-55
2023/09/04 11:58:30;;;;;;;;;;;;;;;32.00;32.15;101494.44;106886;1259;24391;-50
2023/09/04 12:00:58;;;;;;;;;;;;;;;32.04;31.63;101500.30;106745;1276;25344;-51
2023/09/04 12:03:25;;;;;;;;;;;;;;;32.07;31.75;101495.01;106772;1271;25369;-50
2023/09/04 12:05:52;;;;;;;;;;;;;;;32.08;32.05;101493.47;106781;1271;25380;-50
2023/09/04 12:08:19;;;;;;;;;;;;;;;32.11;32.22;101492.88;106842;1273;25395;-50
2023/09/04 12:10:46;;;;;;;;;;;;;;;32.13;31.50;101492.83;106721;1278;25305;-50
2023/09/04 12:13:14;;;;;;;;;;;;;;;32.15;31.61;101492.31;106826;1272;25396;-49
2023/09/04 12:15:41;;;;;;;;;;;;;;;32.17;31.38;101491.13;106513;1278;25403;-50
2023/09/04 12:18:09;;;;;;;;;;;;;;;32.20;31.35;101493.06;106830;1259;25393;-50
2023/09/04 12:20:37;;;;;;;;;;;;;;;32.21;31.39;101492.23;106800;1273;25337;-49
2023/09/04 12:23:04;;;;;;;;;;;;;;;32.21;31.35;101493.85;106799;1264;25429;-50
2023/09/04 12:25:43;;;;;;;;;;;;;;;32.22;31.27;101489.98;106806;1265;25320;-50
2023/09/04 12:28:11;;;;;;;;;;;;;;;32.21;30.90;101495.43;106807;1262;25330;-49